createdAt,value
2023-01-17T00:01:12.398Z,2.80
2023-01-17T00:03:59.069Z,3.53
2023-01-17T00:06:44.550Z,9.33
2023-01-17T00:09:30.981Z,4.07
2023-01-17T00:11:58.806Z,5.30
2023-01-17T00:14:27.290Z,12.27
2023-01-17T00:16:54.246Z,3.83
2023-01-17T00:19:39.401Z,6.07
2023-01-17T00:22:28.916Z,6.33
2023-01-17T00:25:14.039Z,6.97
2023-01-17T00:27:40.590Z,5.73
2023-01-17T00:30:08.512Z,5.43
2023-01-17T00:32:34.977Z,4.13
2023-01-17T00:35:01.555Z,6.37
2023-01-17T00:37:28.078Z,3.80
2023-01-17T00:39:54.572Z,8.27
2023-01-17T00:42:21.094Z,6.50
2023-01-17T00:45:06.456Z,7.07
2023-01-17T00:47:53.116Z,4.27
2023-01-17T00:50:38.393Z,5.07
2023-01-17T00:53:24.175Z,3.80
2023-01-17T00:56:09.219Z,8.63
2023-01-17T00:58:54.371Z,3.67
2023-01-17T01:01:39.646Z,2.97
2023-01-17T01:04:25.044Z,3.70
2023-01-17T01:07:10.158Z,6.53
2023-01-17T01:09:55.510Z,6.07
2023-01-17T01:12:40.708Z,5.00
2023-01-17T01:15:26.650Z,3.30
2023-01-17T01:18:11.607Z,5.23
2023-01-17T01:20:58.011Z,2.87
2023-01-17T01:23:43.159Z,7.43
2023-01-17T01:26:28.283Z,2.70
2023-01-17T01:29:13.355Z,5.47
2023-01-17T01:31:58.590Z,3.90
2023-01-17T01:34:25.180Z,5.47
2023-01-17T01:36:51.768Z,6.47
2023-01-17T01:39:18.452Z,7.37
2023-01-17T01:41:45.111Z,4.63
2023-01-17T01:44:47.910Z,4.33
2023-01-17T01:47:26.979Z,6.90
2023-01-17T01:49:53.811Z,6.93
2023-01-17T01:52:23.185Z,5.43
2023-01-17T01:54:55.662Z,8.50
2023-01-17T01:57:29.470Z,12.97
2023-01-17T02:00:02.330Z,9.47
2023-01-17T02:02:31.055Z,4.93
2023-01-17T02:04:59.721Z,4.50
2023-01-17T02:07:33.289Z,6.43
2023-01-17T02:10:00.592Z,5.17
2023-01-17T02:12:27.673Z,6.03
2023-01-17T02:14:54.278Z,7.60
2023-01-17T02:17:23.635Z,4.13
2023-01-17T02:20:35.104Z,5.47
2023-01-17T02:26:28.467Z,7.53
2023-01-17T02:29:19.732Z,3.43
2023-01-17T02:34:54.492Z,2.83
2023-01-17T02:37:29.072Z,7.70
2023-01-17T02:40:21.033Z,5.53
2023-01-17T02:42:54.274Z,5.67
2023-01-17T02:45:22.662Z,6.10
2023-01-17T02:47:49.267Z,4.73
2023-01-17T02:50:20.661Z,7.60
2023-01-17T02:53:08.058Z,6.73
2023-01-17T02:55:56.499Z,4.20
2023-01-17T02:58:50.346Z,12.33
2023-01-17T03:01:17.381Z,5.30
2023-01-17T03:04:08.465Z,5.37
2023-01-17T03:06:44.437Z,5.35
2023-01-17T03:09:14.648Z,7.57
2023-01-17T03:11:42.445Z,4.20
2023-01-17T03:14:09.039Z,2.77
2023-01-17T03:16:35.769Z,13.10
2023-01-17T03:19:02.799Z,8.87
2023-01-17T03:21:29.403Z,7.00
2023-01-17T03:23:55.978Z,5.43
2023-01-17T03:26:22.690Z,6.73
2023-01-17T03:28:49.267Z,4.70
2023-01-17T03:31:18.022Z,8.97
2023-01-17T03:33:44.647Z,6.77
2023-01-17T03:36:12.262Z,9.27
2023-01-17T03:38:38.955Z,3.20
2023-01-17T03:41:05.924Z,10.97
2023-01-17T03:43:32.488Z,5.50
2023-01-17T03:46:04.498Z,3.77
2023-01-17T03:48:31.297Z,7.23
2023-01-17T03:50:58.281Z,10.23
2023-01-17T03:53:24.966Z,3.73
2023-01-17T03:55:51.931Z,3.80
2023-01-17T03:58:18.706Z,6.93
2023-01-17T04:00:45.260Z,4.77
2023-01-17T04:03:11.855Z,2.97
2023-01-17T04:05:38.453Z,5.97
2023-01-17T04:08:07.122Z,3.23
2023-01-17T04:10:34.013Z,4.03
2023-01-17T04:13:00.763Z,5.83
2023-01-17T04:15:27.385Z,8.00
2023-01-17T04:17:53.939Z,7.93
2023-01-17T04:20:38.983Z,6.20
2023-01-17T04:23:06.708Z,7.20
2023-01-17T04:25:33.786Z,10.10
2023-01-17T04:28:01.651Z,9.33
2023-01-17T04:30:29.003Z,4.50
2023-01-17T04:32:55.855Z,8.43
2023-01-17T04:35:22.808Z,4.53
2023-01-17T04:37:49.663Z,4.60
2023-01-17T04:40:16.461Z,9.67
2023-01-17T04:42:45.326Z,15.10
2023-01-17T04:45:12.782Z,4.23
2023-01-17T04:47:39.489Z,3.87
2023-01-17T04:50:06.968Z,4.87
2023-01-17T04:52:33.582Z,4.70
2023-01-17T04:55:00.102Z,3.73
2023-01-17T04:57:27.187Z,7.50
2023-01-17T04:59:53.789Z,8.17
2023-01-17T05:02:20.475Z,3.57
2023-01-17T05:04:47.148Z,6.47
2023-01-17T05:07:13.999Z,2.97
2023-01-17T05:09:40.584Z,5.53
2023-01-17T05:12:07.389Z,9.33
2023-01-17T05:14:34.552Z,8.17
2023-01-17T05:17:03.130Z,4.00
2023-01-17T05:19:29.875Z,5.33
2023-01-17T05:22:03.860Z,4.87
2023-01-17T05:24:31.504Z,5.33
2023-01-17T05:27:03.823Z,5.23
2023-01-17T05:29:30.797Z,8.33
2023-01-17T05:31:57.933Z,5.87
2023-01-17T05:34:24.813Z,8.40
2023-01-17T05:36:51.522Z,7.30
2023-01-17T05:39:18.512Z,8.03
2023-01-17T05:41:45.145Z,7.13
2023-01-17T05:44:11.776Z,5.70
2023-01-17T05:46:38.512Z,14.37
2023-01-17T05:49:05.562Z,5.73
2023-01-17T05:51:32.463Z,5.03
2023-01-17T05:53:59.065Z,7.60
2023-01-17T05:56:25.845Z,5.90
2023-01-17T05:58:52.493Z,6.20
2023-01-17T06:01:19.727Z,9.53
2023-01-17T06:03:46.403Z,8.37
2023-01-17T06:06:13.355Z,5.10
2023-01-17T06:08:39.966Z,5.70
2023-01-17T06:11:06.584Z,8.40
2023-01-17T06:13:33.187Z,6.70
2023-01-17T06:16:03.043Z,8.90
2023-01-17T06:18:31.179Z,7.07
2023-01-17T06:20:57.966Z,5.60
2023-01-17T06:23:25.041Z,10.43
2023-01-17T06:25:51.983Z,8.80
2023-01-17T06:28:21.154Z,6.37
2023-01-17T06:30:48.889Z,8.40
2023-01-17T06:33:16.274Z,9.53
2023-01-17T06:35:53.542Z,11.87
2023-01-17T06:38:20.775Z,8.50
2023-01-17T06:40:47.360Z,9.43
2023-01-17T06:43:14.152Z,6.23
2023-01-17T06:45:40.730Z,7.93
2023-01-17T06:48:07.523Z,15.97
2023-01-17T06:50:34.399Z,18.13
2023-01-17T06:53:03.346Z,9.40
2023-01-17T06:55:31.061Z,10.30
2023-01-17T06:57:59.632Z,10.87
2023-01-17T07:00:30.283Z,18.13
2023-01-17T07:02:56.916Z,12.68
2023-01-17T07:05:23.598Z,5.57
2023-01-17T07:07:50.187Z,7.40
2023-01-17T07:10:16.955Z,9.37
2023-01-17T07:12:43.567Z,17.60
2023-01-17T07:15:10.934Z,11.27
2023-01-17T07:17:37.961Z,9.23
2023-01-17T07:20:05.181Z,15.80
2023-01-17T07:22:31.832Z,13.20
2023-01-17T07:24:58.830Z,15.30
2023-01-17T07:27:27.830Z,14.47
2023-01-17T07:29:54.508Z,14.70
2023-01-17T07:32:21.167Z,18.23
2023-01-17T07:34:47.892Z,28.63
2023-01-17T07:37:15.404Z,20.67
2023-01-17T07:39:42.467Z,23.97
2023-01-17T07:42:09.344Z,13.47
2023-01-17T07:44:36.114Z,22.30
2023-01-17T07:47:04.278Z,20.67
2023-01-17T07:49:30.967Z,13.93
2023-01-17T07:51:57.637Z,16.30
2023-01-17T07:54:24.195Z,11.10
2023-01-17T07:56:50.885Z,10.00
2023-01-17T07:59:18.193Z,11.67
2023-01-17T08:01:44.912Z,10.30
2023-01-17T08:04:11.684Z,7.20
2023-01-17T08:06:42.125Z,14.57
2023-01-17T08:09:08.878Z,7.40
2023-01-17T08:11:35.874Z,10.27
2023-01-17T08:14:17.080Z,9.30
2023-01-17T08:16:43.764Z,12.93
2023-01-17T08:19:10.468Z,12.93
2023-01-17T08:21:37.099Z,12.83
2023-01-17T08:24:03.914Z,12.63
2023-01-17T08:26:30.508Z,15.70
2023-01-17T08:29:00.482Z,14.97
2023-01-17T08:31:29.724Z,17.30
2023-01-17T08:33:57.283Z,18.40
2023-01-17T08:36:25.884Z,18.73
2023-01-17T08:38:53.666Z,13.03
2023-01-17T08:41:21.363Z,12.33
2023-01-17T08:43:49.578Z,12.47
2023-01-17T08:46:16.648Z,13.07
2023-01-17T08:48:44.045Z,12.70
2023-01-17T08:51:11.644Z,13.23
2023-01-17T08:53:38.447Z,14.10
2023-01-17T08:56:06.095Z,10.60
2023-01-17T08:58:33.585Z,12.57
2023-01-17T09:01:05.659Z,13.47
2023-01-17T09:03:34.089Z,11.13
2023-01-17T09:06:08.350Z,11.50
2023-01-17T09:08:35.579Z,17.20
2023-01-17T09:11:11.710Z,24.93
2023-01-17T09:13:39.509Z,16.08
2023-01-17T09:16:06.997Z,17.60
2023-01-17T09:18:35.067Z,12.35
2023-01-17T09:21:11.378Z,15.82
2023-01-17T09:23:38.127Z,9.82
2023-01-17T09:26:04.935Z,20.13
2023-01-17T09:28:31.505Z,10.87
2023-01-17T09:30:58.198Z,22.00
2023-01-17T09:33:25.300Z,17.63
2023-01-17T09:35:51.836Z,15.90
2023-01-17T09:38:18.455Z,10.23
2023-01-17T09:40:47.804Z,20.17
2023-01-17T09:43:41.506Z,24.50
2023-01-17T09:46:22.557Z,14.02
2023-01-17T09:51:24.551Z,18.57
2023-01-17T09:53:53.132Z,13.73
2023-01-17T09:56:29.643Z,8.32
2023-01-17T09:59:08.998Z,13.20
2023-01-17T10:02:03.333Z,13.98
2023-01-17T10:05:04.887Z,17.00
2023-01-17T10:07:57.941Z,18.80
2023-01-17T10:10:51.583Z,21.45
2023-01-17T10:13:50.951Z,10.05
2023-01-17T10:16:36.231Z,10.33
2023-01-17T10:19:35.315Z,18.40
2023-01-17T10:22:02.297Z,16.40
2023-01-17T10:24:47.421Z,8.35
2023-01-17T10:27:25.921Z,17.33
2023-01-17T10:29:54.209Z,15.68
2023-01-17T10:32:26.142Z,12.02
2023-01-17T10:34:53.570Z,12.82
2023-01-17T10:37:30.837Z,13.27
2023-01-17T10:40:03.156Z,13.65
2023-01-17T10:42:43.877Z,8.65
2023-01-17T10:45:18.685Z,16.80
2023-01-17T10:47:52.375Z,13.70
2023-01-17T10:50:21.722Z,10.18
2023-01-17T10:53:08.315Z,27.40
2023-01-17T10:55:51.704Z,8.50
2023-01-17T10:58:18.348Z,21.10
2023-01-17T11:01:06.769Z,17.60
2023-01-17T11:03:34.758Z,14.30
2023-01-17T11:06:24.344Z,7.38
2023-01-17T11:08:59.039Z,12.60
2023-01-17T11:11:37.534Z,19.13
2023-01-17T11:14:14.140Z,16.40
2023-01-17T11:16:40.788Z,13.95
2023-01-17T11:19:26.658Z,12.50
2023-01-17T11:22:05.413Z,22.23
2023-01-17T11:24:38.837Z,16.20
2023-01-17T11:27:06.785Z,14.35
2023-01-17T11:29:37.170Z,12.98
2023-01-17T11:32:22.135Z,11.77
2023-01-17T11:35:13.293Z,18.17
2023-01-17T11:38:06.787Z,10.10
2023-01-17T11:40:38.418Z,12.82
2023-01-17T11:43:11.168Z,16.38
2023-01-17T11:45:39.379Z,19.75
2023-01-17T11:48:09.081Z,18.08
2023-01-17T11:51:03.722Z,13.02
2023-01-17T11:53:34.027Z,9.55
2023-01-17T11:56:10.423Z,17.13
2023-01-17T11:58:45.848Z,10.48
2023-01-17T12:01:30.742Z,14.20
2023-01-17T12:04:08.261Z,14.30
2023-01-17T12:06:57.218Z,9.57
2023-01-17T12:09:47.704Z,10.60
2023-01-17T12:12:43.984Z,5.90
2023-01-17T12:15:25.762Z,10.00
2023-01-17T12:18:22.233Z,11.32
2023-01-17T12:21:15.360Z,13.13
2023-01-17T12:24:39.198Z,9.40
2023-01-17T12:27:23.894Z,10.77
2023-01-17T12:29:58.868Z,13.30
2023-01-17T12:32:31.260Z,16.50
2023-01-17T12:35:12.418Z,13.85
2023-01-17T12:37:44.016Z,11.32
2023-01-17T12:40:22.225Z,12.18
2023-01-17T12:43:08.628Z,7.93
2023-01-17T12:45:42.683Z,8.13
2023-01-17T12:48:34.342Z,14.68
2023-01-17T12:51:17.622Z,8.90
2023-01-17T12:54:02.283Z,8.48
2023-01-17T12:56:34.594Z,8.05
2023-01-17T12:59:19.354Z,9.65
2023-01-17T13:01:57.655Z,7.60
2023-01-17T13:04:26.906Z,8.02
2023-01-17T13:06:59.819Z,11.45
2023-01-17T13:09:34.983Z,11.07
2023-01-17T13:12:18.029Z,6.50
2023-01-17T13:14:48.475Z,9.10
2023-01-17T13:17:32.890Z,7.57
2023-01-17T13:20:08.903Z,7.50
2023-01-17T13:22:38.965Z,9.15
2023-01-17T13:25:42.346Z,13.63
2023-01-17T13:28:36.009Z,10.70
2023-01-17T13:31:27.037Z,7.35
2023-01-17T13:34:18.489Z,9.30
2023-01-17T13:37:06.807Z,9.13
2023-01-17T13:39:53.624Z,6.10
2023-01-17T13:42:34.747Z,13.88
2023-01-17T13:45:08.308Z,9.57
2023-01-17T13:47:38.857Z,9.55
2023-01-17T13:50:06.716Z,12.73
2023-01-17T13:52:33.791Z,15.00
2023-01-17T13:55:05.481Z,5.13
2023-01-17T13:57:43.331Z,9.57
2023-01-17T14:00:16.443Z,5.75
2023-01-17T14:02:43.991Z,6.28
2023-01-17T14:05:23.927Z,9.48
2023-01-17T14:08:06.190Z,5.05
2023-01-17T14:10:32.677Z,6.13
2023-01-17T14:12:59.570Z,6.90
2023-01-17T14:15:28.203Z,7.25
2023-01-17T14:17:58.736Z,6.65
2023-01-17T14:20:25.240Z,7.50
2023-01-17T14:22:58.155Z,7.63
2023-01-17T14:25:28.554Z,10.52
2023-01-17T14:28:00.400Z,11.77
2023-01-17T14:30:28.986Z,3.63
2023-01-17T14:32:58.538Z,10.38
2023-01-17T14:35:30.039Z,6.22
2023-01-17T14:38:02.944Z,3.55
2023-01-17T14:40:34.305Z,4.90
2023-01-17T14:43:09.950Z,7.88
2023-01-17T14:45:37.870Z,3.30
2023-01-17T14:48:07.718Z,4.68
2023-01-17T14:50:40.025Z,5.35
2023-01-17T14:53:12.789Z,6.43
2023-01-17T14:55:49.828Z,6.70
2023-01-17T14:58:25.301Z,3.53
2023-01-17T15:00:56.485Z,6.90
2023-01-17T15:03:23.459Z,4.88
2023-01-17T15:05:52.975Z,3.00
2023-01-17T15:08:23.481Z,9.07
2023-01-17T15:10:58.819Z,5.03
2023-01-17T15:13:45.354Z,10.50
2023-01-17T15:16:30.959Z,7.28
2023-01-17T15:18:57.994Z,4.30
2023-01-17T15:21:31.098Z,7.60
2023-01-17T15:24:00.155Z,4.15
2023-01-17T15:26:32.176Z,6.00
2023-01-17T15:29:15.821Z,5.38
2023-01-17T15:31:48.714Z,3.80
2023-01-17T15:34:25.995Z,4.70
2023-01-17T15:36:53.638Z,6.43
2023-01-17T15:39:30.470Z,10.75
2023-01-17T15:41:59.591Z,6.55
2023-01-17T15:44:47.921Z,5.88
2023-01-17T15:47:26.770Z,14.00
2023-01-17T15:49:53.491Z,7.82
2023-01-17T15:52:21.475Z,4.30
2023-01-17T15:55:12.633Z,14.15
2023-01-17T15:57:39.757Z,3.75
2023-01-17T16:00:20.298Z,2.78
2023-01-17T16:02:55.374Z,3.88
2023-01-17T16:05:22.458Z,8.35
2023-01-17T16:08:02.646Z,5.90
2023-01-17T16:10:38.002Z,11.57
2023-01-17T16:13:06.147Z,4.10
2023-01-17T16:15:35.324Z,3.83
2023-01-17T16:18:03.579Z,7.77
2023-01-17T16:20:39.319Z,4.80
2023-01-17T16:23:05.874Z,7.47
2023-01-17T16:25:32.982Z,7.97
2023-01-17T16:27:59.966Z,6.93
2023-01-17T16:30:27.864Z,11.77
2023-01-17T16:32:56.576Z,9.97
2023-01-17T16:35:31.918Z,8.47
2023-01-17T16:38:06.999Z,10.13
2023-01-17T16:40:39.871Z,4.07
2023-01-17T16:43:06.504Z,6.67
2023-01-17T16:45:41.100Z,7.90
2023-01-17T16:48:08.645Z,4.50
2023-01-17T16:50:35.320Z,6.23
2023-01-17T16:53:02.030Z,8.20
2023-01-17T16:55:28.590Z,7.50
2023-01-17T16:57:58.125Z,4.80
2023-01-17T17:00:24.900Z,7.53
2023-01-17T17:02:52.557Z,7.10
2023-01-17T17:05:20.117Z,9.67
2023-01-17T17:07:50.820Z,4.80
2023-01-17T17:10:19.845Z,7.57
2023-01-17T17:12:46.964Z,6.43
2023-01-17T17:15:13.654Z,19.83
2023-01-17T17:17:43.111Z,7.57
2023-01-17T17:20:12.777Z,9.03
2023-01-17T17:22:48.884Z,12.30
2023-01-17T17:25:15.976Z,8.40
2023-01-17T17:27:42.844Z,12.50
2023-01-17T17:30:10.448Z,10.80
2023-01-17T17:32:37.028Z,13.13
2023-01-17T17:35:03.769Z,7.17
2023-01-17T17:37:30.489Z,11.00
2023-01-17T17:39:57.749Z,13.27
2023-01-17T17:42:24.617Z,14.57
2023-01-17T17:44:51.563Z,13.10
2023-01-17T17:47:18.197Z,9.23
2023-01-17T17:49:44.810Z,16.73
2023-01-17T17:52:11.648Z,12.07
2023-01-17T17:54:38.316Z,10.53
2023-01-17T17:57:04.956Z,11.93
2023-01-17T17:59:31.819Z,16.33
2023-01-17T18:01:59.714Z,10.13
2023-01-17T18:04:26.822Z,8.07
2023-01-17T18:06:59.617Z,8.23
2023-01-17T18:09:26.211Z,10.63
2023-01-17T18:11:52.831Z,7.33
2023-01-17T18:14:21.194Z,8.63
2023-01-17T18:16:48.265Z,6.20
2023-01-17T18:19:19.505Z,10.50
2023-01-17T18:21:46.523Z,5.97
2023-01-17T18:24:15.721Z,11.63
2023-01-17T18:26:45.028Z,10.33
2023-01-17T18:29:17.839Z,8.63
2023-01-17T18:31:46.443Z,6.50
2023-01-17T18:34:15.452Z,6.00
2023-01-17T18:36:42.926Z,9.93
2023-01-17T18:39:19.898Z,9.10
2023-01-17T18:41:46.900Z,12.00
2023-01-17T18:44:13.422Z,11.83
2023-01-17T18:46:42.000Z,10.53
2023-01-17T18:49:11.748Z,10.27
2023-01-17T18:51:38.677Z,14.20
2023-01-17T18:54:07.118Z,12.40
2023-01-17T18:56:34.539Z,9.27
2023-01-17T18:59:01.781Z,10.87
2023-01-17T19:01:31.204Z,9.40
2023-01-17T19:04:00.461Z,8.90
2023-01-17T19:06:30.407Z,14.57
2023-01-17T19:08:58.569Z,7.57
2023-01-17T19:11:27.169Z,10.50
2023-01-17T19:13:54.414Z,10.63
2023-01-17T19:16:28.134Z,10.83
2023-01-17T19:18:56.561Z,8.63
2023-01-17T19:21:25.546Z,8.33
2023-01-17T19:23:53.531Z,7.93
2023-01-17T19:26:20.564Z,9.00
2023-01-17T19:28:48.778Z,7.53
2023-01-17T19:31:23.430Z,6.63
2023-01-17T19:33:52.408Z,9.23
2023-01-17T19:36:27.417Z,9.47
2023-01-17T19:39:03.855Z,10.33
2023-01-17T19:41:32.212Z,10.40
2023-01-17T19:44:09.520Z,9.50
2023-01-17T19:46:36.963Z,9.00
2023-01-17T19:49:05.995Z,17.37
2023-01-17T19:51:32.719Z,30.03
2023-01-17T19:54:01.351Z,32.90
2023-01-17T19:56:28.764Z,26.77
2023-01-17T19:58:57.213Z,17.90
2023-01-17T20:01:28.394Z,22.73
2023-01-17T20:03:57.598Z,20.00
2023-01-17T20:06:27.488Z,17.77
2023-01-17T20:08:54.799Z,20.40
2023-01-17T20:11:23.857Z,17.93
2023-01-17T20:13:56.248Z,8.43
2023-01-17T20:16:24.705Z,9.00
2023-01-17T20:18:51.842Z,14.00
2023-01-17T20:21:18.352Z,12.60
2023-01-17T20:23:50.033Z,12.57
2023-01-17T20:26:23.414Z,13.97
2023-01-17T20:28:54.604Z,17.13
2023-01-17T20:31:23.747Z,15.33
2023-01-17T20:33:52.564Z,11.10
2023-01-17T20:36:21.234Z,19.03
2023-01-17T20:38:48.855Z,18.87
2023-01-17T20:41:17.504Z,16.13
2023-01-17T20:43:46.030Z,10.73
2023-01-17T20:46:13.180Z,17.27
2023-01-17T20:48:51.387Z,15.10
2023-01-17T20:51:18.970Z,14.73
2023-01-17T20:53:47.030Z,14.50
2023-01-17T20:56:15.508Z,17.07
2023-01-17T20:58:42.567Z,14.00
2023-01-17T21:01:10.754Z,13.13
2023-01-17T21:03:39.182Z,14.70
2023-01-17T21:06:08.409Z,11.93
2023-01-17T21:08:38.958Z,12.53
2023-01-17T21:11:07.039Z,17.73
2023-01-17T21:13:33.987Z,9.80
2023-01-17T21:16:00.863Z,11.87
2023-01-17T21:18:31.571Z,8.57
2023-01-17T21:21:11.011Z,13.32
2023-01-17T21:23:39.249Z,14.17
2023-01-17T21:26:07.113Z,16.10
2023-01-17T21:28:37.345Z,13.37
2023-01-17T21:31:31.109Z,10.63
2023-01-17T21:34:04.388Z,12.63
2023-01-17T21:36:33.759Z,11.30
2023-01-17T21:39:04.788Z,9.27
2023-01-17T21:44:02.760Z,12.53
2023-01-17T21:46:29.876Z,17.07
2023-01-17T21:48:57.555Z,11.83
2023-01-17T21:51:24.748Z,11.40
2023-01-17T21:53:51.393Z,11.70
2023-01-17T21:56:36.604Z,20.13
2023-01-17T21:59:03.451Z,19.93
2023-01-17T22:01:33.108Z,9.63
2023-01-17T22:04:01.561Z,7.20
2023-01-17T22:06:30.647Z,17.17
2023-01-17T22:08:57.927Z,6.93
2023-01-17T22:11:26.239Z,5.07
2023-01-17T22:13:53.244Z,11.60
2023-01-17T22:16:23.377Z,8.43
2023-01-17T22:18:50.838Z,5.03
2023-01-17T22:21:19.280Z,6.90
2023-01-17T22:23:47.709Z,5.67
2023-01-17T22:26:15.153Z,7.03
2023-01-17T22:28:42.848Z,6.17
2023-01-17T22:31:13.860Z,4.43
2023-01-17T22:36:09.161Z,5.47
2023-01-17T22:38:36.242Z,3.93
2023-01-17T22:41:08.007Z,4.43
2023-01-17T22:43:43.442Z,5.67
2023-01-17T22:46:12.813Z,9.30
2023-01-17T22:48:40.083Z,3.70
2023-01-17T22:51:09.700Z,5.43
2023-01-17T22:53:41.419Z,5.23
2023-01-17T22:56:22.570Z,2.60
2023-01-17T23:01:21.640Z,4.97
2023-01-17T23:04:02.809Z,5.73
2023-01-17T23:06:33.157Z,4.78
2023-01-17T23:09:02.609Z,4.68
2023-01-17T23:11:39.188Z,5.03
2023-01-17T23:14:06.815Z,5.80
2023-01-17T23:16:51.970Z,7.43
2023-01-17T23:19:24.736Z,2.63
2023-01-17T23:22:16.036Z,4.43
2023-01-17T23:24:50.134Z,6.17
2023-01-17T23:27:45.346Z,4.23
2023-01-17T23:30:13.996Z,6.13
2023-01-17T23:32:46.423Z,6.93
2023-01-17T23:35:13.429Z,6.53
2023-01-17T23:37:58.603Z,14.83
2023-01-17T23:40:25.188Z,6.43
2023-01-17T23:43:10.549Z,4.30
2023-01-17T23:45:38.795Z,4.50
2023-01-17T23:48:09.620Z,11.20
2023-01-17T23:50:38.191Z,7.90
2023-01-17T23:53:08.147Z,8.50
2023-01-17T23:55:39.553Z,3.17
2023-01-17T23:58:08.425Z,4.10
